Aeronaves

Nuestra Flota

En el Centro de Instrucción de Aeronáutica Civil del Aeroclub de Mar del Plata contamos con 2 aviones Cessna 150 que es un avión biplaza  equipado con tren de aterrizaje fijo en triciclo y ala alta, diseñado originalmente para labores de entrenamiento, turismo y uso personal. 

Nuestros aviones cessna 150 son:

Cessna 150 – LV−LLD,  Biplaza tren triciclo

Cessna 150 – LV−BPG,  Biplaza tren triciclo. 

Cessna 150 – LV−CLH,  Biplaza tren triciclo. 

Cessna 172 LV – GNZ Cuatriplaza tren triciclo

Además contamos con 1 avión Piper PA 11, un avión biplaza en tándem, con ala alta, diseñado para entrenamiento y perfeccionamiento de los pilotos

Piper PA11 – LV −YJI, Biplaza tren convencional.

 

Facebook Aeroclub Mar del Plata

Informe Climatico
MAR DEL PLATA AR
Metar
SAZM 132200Z 01005KT 350V050 9000 -RA FEW030 OVC060 17/15 Q1011

22:00 UTC

Wind: 10° 5kt

Visibility: 9000 m

Sky: FEW 3000 ft

Temp: 17 deg C / 62.6 deg F

Dewpoint: 15 deg C / 59 deg F

Pressure: 1011 hPa

TAF
TAF SAZM 131700Z 1318/1418 05010G20KT CAVOK TX26/1418Z TN13/1410Z BECMG 1319/1322 05020G35KT PROB40 TEMPO 1400/1404 5000 TSRA BKN020 FEW035CB BKN050 BECMG 1406/1409 02015G25KT 7000 RADZ SCT010 BKN035 BECMG 1415/1418 23015KT 6000 SHRA BKN015 FEW025TCU